createdAt,value
2024-04-06T00:00:40.889Z,76.92
2024-04-06T00:01:40.743Z,76.72
2024-04-06T00:02:40.720Z,77.12
2024-04-06T00:03:40.726Z,77.12
2024-04-06T00:04:40.705Z,77.02
2024-04-06T00:05:40.710Z,76.72
2024-04-06T00:06:40.677Z,77.12
2024-04-06T00:07:40.694Z,77.32
2024-04-06T00:08:40.672Z,77.32
2024-04-06T00:09:41.690Z,77.42
2024-04-06T00:10:40.662Z,77.22
2024-04-06T00:11:40.750Z,77.32
2024-04-06T00:12:40.688Z,77.97
2024-04-06T00:13:40.649Z,77.86
2024-04-06T00:14:40.640Z,78.27
2024-04-06T00:15:40.655Z,78.47
2024-04-06T00:16:40.695Z,78.17
2024-04-06T00:17:40.641Z,78.17
2024-04-06T00:18:40.626Z,78.03
2024-04-06T00:19:40.624Z,77.76
2024-04-06T00:20:40.608Z,78.91
2024-04-06T00:21:40.594Z,78.67
2024-04-06T00:22:40.674Z,78.57
2024-04-06T00:23:40.596Z,78.27
2024-04-06T00:24:40.590Z,78.33
2024-04-06T00:25:40.949Z,78.06
2024-04-06T00:26:40.656Z,77.93
2024-04-06T00:27:40.576Z,77.86
2024-04-06T00:28:40.607Z,78.03
2024-04-06T00:29:40.550Z,77.97
2024-04-06T00:30:40.599Z,78.30
2024-04-06T00:31:41.534Z,79.11
2024-04-06T00:32:40.575Z,78.88
2024-04-06T00:33:41.320Z,78.81
2024-04-06T00:34:40.542Z,78.88
2024-04-06T00:35:40.526Z,78.47
2024-04-06T00:36:40.570Z,77.97
2024-04-06T00:37:40.504Z,78.06
2024-04-06T00:38:40.527Z,78.27
2024-04-06T00:39:40.514Z,78.06
2024-04-06T00:40:40.493Z,77.97
2024-04-06T00:41:40.491Z,78.57
2024-04-06T00:42:40.498Z,78.91
2024-04-06T00:43:40.472Z,79.01
2024-04-06T00:44:40.464Z,78.91
2024-04-06T00:45:40.448Z,78.91
2024-04-06T00:46:40.456Z,78.88
2024-04-06T00:47:40.455Z,79.08
2024-04-06T00:48:40.443Z,79.32
2024-04-06T00:49:40.482Z,79.99
2024-04-06T00:50:40.434Z,80.12
2024-04-06T00:51:40.555Z,79.38
2024-04-06T00:52:40.415Z,78.97
2024-04-06T00:53:40.403Z,78.53
2024-04-06T00:54:40.404Z,77.93
2024-04-06T00:55:40.433Z,78.03
2024-04-06T00:56:40.408Z,77.93
2024-04-06T00:57:40.400Z,77.83
2024-04-06T00:58:40.372Z,78.27
2024-04-06T00:59:40.439Z,78.43
2024-04-06T01:00:40.438Z,78.13
2024-04-06T01:01:47.028Z,78.13
2024-04-06T01:02:42.387Z,78.97
2024-04-06T01:03:40.348Z,79.28
2024-04-06T01:04:40.351Z,79.38
2024-04-06T01:05:40.340Z,79.68
2024-04-06T01:06:40.355Z,79.58
2024-04-06T01:07:40.362Z,79.58
2024-04-06T01:08:40.306Z,79.24
2024-04-06T01:09:40.315Z,78.74
2024-04-06T01:10:40.331Z,78.88
2024-04-06T01:11:40.336Z,78.84
2024-04-06T01:12:40.282Z,78.74
2024-04-06T01:13:40.319Z,78.53
2024-04-06T01:14:41.309Z,78.09
2024-04-06T01:15:40.307Z,77.99
2024-04-06T01:16:40.288Z,77.89
2024-04-06T01:17:40.294Z,77.99
2024-04-06T01:18:40.247Z,77.93
2024-04-06T01:19:40.250Z,78.03
2024-04-06T01:20:40.251Z,77.79
2024-04-06T01:21:40.295Z,77.69
2024-04-06T01:22:40.241Z,77.79
2024-04-06T01:23:40.239Z,77.59
2024-04-06T01:24:40.228Z,78.23
2024-04-06T01:25:40.214Z,78.13
2024-04-06T01:26:40.240Z,78.23
2024-04-06T01:27:40.201Z,77.89
2024-04-06T01:28:40.832Z,78.03
2024-04-06T01:29:40.182Z,78.57
2024-04-06T01:30:40.187Z,79.17
2024-04-06T01:31:40.214Z,79.44
2024-04-06T01:32:40.269Z,79.08
2024-04-06T01:33:40.170Z,79.17
2024-04-06T01:34:40.295Z,79.79
2024-04-06T01:35:40.155Z,79.79
2024-04-06T01:36:40.164Z,79.08
2024-04-06T01:37:40.166Z,79.08
2024-04-06T01:38:40.134Z,79.17
2024-04-06T01:39:40.130Z,79.08
2024-04-06T01:40:40.137Z,79.28
2024-04-06T01:41:40.144Z,79.28
2024-04-06T01:42:41.131Z,78.88
2024-04-06T01:43:40.259Z,78.53
2024-04-06T01:44:40.141Z,78.23
2024-04-06T01:45:40.198Z,77.79
2024-04-06T01:46:40.089Z,77.79
2024-04-06T01:47:40.104Z,77.32
2024-04-06T01:48:40.104Z,77.59
2024-04-06T01:49:40.081Z,77.28
2024-04-06T01:50:40.085Z,77.69
2024-04-06T01:51:40.067Z,77.69
2024-04-06T01:52:40.061Z,77.49
2024-04-06T01:53:40.091Z,77.49
2024-04-06T01:54:40.078Z,77.39
2024-04-06T01:55:40.049Z,77.62
2024-04-06T01:56:40.035Z,77.19
2024-04-06T01:57:40.020Z,77.39
2024-04-06T01:58:40.045Z,77.73
2024-04-06T01:59:40.039Z,78.27
2024-04-06T02:00:40.055Z,78.47
2024-04-06T02:01:40.023Z,78.37
2024-04-06T02:02:40.184Z,78.33
2024-04-06T02:03:40.025Z,78.23
2024-04-06T02:04:40.021Z,77.93
2024-04-06T02:05:39.984Z,78.77
2024-04-06T02:06:40.011Z,80.06
2024-04-06T02:07:39.957Z,80.77
2024-04-06T02:08:39.948Z,80.63
2024-04-06T02:09:39.983Z,80.83
2024-04-06T02:10:39.988Z,80.83
2024-04-06T02:11:39.954Z,80.57
2024-04-06T02:12:39.927Z,80.77
2024-04-06T02:13:39.931Z,81.01
2024-04-06T02:14:39.925Z,81.68
2024-04-06T02:15:40.003Z,81.41
2024-04-06T02:16:39.907Z,81.31
2024-04-06T02:17:39.953Z,81.51
2024-04-06T02:18:39.906Z,80.46
2024-04-06T02:19:40.077Z,80.97
2024-04-06T02:20:39.923Z,80.83
2024-04-06T02:21:39.912Z,80.53
2024-04-06T02:22:39.890Z,80.32
2024-04-06T02:23:39.915Z,79.46
2024-04-06T02:24:39.888Z,81.01
2024-04-06T02:25:39.993Z,80.87
2024-04-06T02:26:39.939Z,80.80
2024-04-06T02:27:39.875Z,81.17
2024-04-06T02:28:40.839Z,80.77
2024-04-06T02:29:39.978Z,80.97
2024-04-06T02:30:39.859Z,80.57
2024-04-06T02:31:39.819Z,80.77
2024-04-06T02:32:39.830Z,80.66
2024-04-06T02:33:39.887Z,81.41
2024-04-06T02:34:39.812Z,81.48
2024-04-06T02:35:39.873Z,81.01
2024-04-06T02:36:39.780Z,81.41
2024-04-06T02:37:39.801Z,81.62
2024-04-06T02:38:39.786Z,81.62
2024-04-06T02:39:39.785Z,81.51
2024-04-06T02:40:39.799Z,81.51
2024-04-06T02:41:39.763Z,81.31
2024-04-06T02:42:40.135Z,81.41
2024-04-06T02:43:39.743Z,81.48
2024-04-06T02:44:39.732Z,80.91
2024-04-06T02:45:39.770Z,80.80
2024-04-06T02:46:39.736Z,81.68
2024-04-06T02:47:39.783Z,81.27
2024-04-06T02:48:39.709Z,80.57
2024-04-06T02:49:39.697Z,81.07
2024-04-06T02:50:39.699Z,80.26
2024-04-06T02:51:39.695Z,80.57
2024-04-06T02:52:39.700Z,80.46
2024-04-06T02:53:39.669Z,81.27
2024-04-06T02:54:39.691Z,81.62
2024-04-06T02:55:39.689Z,81.48
2024-04-06T02:56:39.660Z,81.27
2024-04-06T02:57:39.673Z,80.97
2024-04-06T02:58:39.671Z,80.77
2024-04-06T02:59:39.667Z,80.93
2024-04-06T03:00:39.643Z,81.27
2024-04-06T03:01:39.626Z,80.80
2024-04-06T03:02:39.670Z,80.66
2024-04-06T03:03:39.643Z,80.63
2024-04-06T03:04:39.613Z,81.37
2024-04-06T03:05:39.613Z,81.57
2024-04-06T03:06:39.609Z,80.66
2024-04-06T03:07:39.610Z,81.48
2024-04-06T03:08:39.613Z,80.77
2024-04-06T03:09:39.607Z,81.27
2024-04-06T03:10:39.602Z,80.77
2024-04-06T03:11:39.573Z,80.77
2024-04-06T03:12:39.564Z,80.66
2024-04-06T03:13:39.582Z,81.17
2024-04-06T03:14:39.557Z,80.77
2024-04-06T03:15:39.578Z,80.63
2024-04-06T03:16:39.553Z,80.83
2024-04-06T03:17:39.635Z,80.63
2024-04-06T03:18:39.527Z,80.63
2024-04-06T03:19:39.588Z,81.03
2024-04-06T03:20:39.532Z,80.63
2024-04-06T03:21:39.517Z,80.12
2024-04-06T03:22:39.504Z,80.32
2024-04-06T03:23:39.506Z,80.90
2024-04-06T03:24:39.552Z,80.63
2024-04-06T03:25:39.507Z,80.32
2024-04-06T03:26:39.485Z,80.32
2024-04-06T03:27:39.492Z,81.13
2024-04-06T03:28:39.494Z,80.73
2024-04-06T03:29:39.459Z,81.03
2024-04-06T03:30:39.495Z,81.64
2024-04-06T03:31:39.457Z,81.57
2024-04-06T03:32:39.548Z,81.13
2024-04-06T03:33:39.467Z,81.54
2024-04-06T03:34:39.467Z,81.34
2024-04-06T03:35:39.461Z,81.34
2024-04-06T03:36:39.429Z,81.34
2024-04-06T03:37:39.438Z,81.78
2024-04-06T03:38:39.428Z,81.84
2024-04-06T03:39:39.498Z,81.64
2024-04-06T03:40:39.390Z,81.30
2024-04-06T03:41:39.420Z,81.60
2024-04-06T03:42:39.388Z,81.34
2024-04-06T03:43:39.416Z,81.40
2024-04-06T03:44:39.385Z,81.10
2024-04-06T03:45:39.451Z,81.50
2024-04-06T03:46:39.378Z,80.73
2024-04-06T03:47:39.472Z,82.01
2024-04-06T03:48:39.379Z,80.79
2024-04-06T03:49:39.366Z,81.36
2024-04-06T03:50:39.349Z,80.96
2024-04-06T03:51:39.342Z,80.76
2024-04-06T03:52:39.334Z,80.65
2024-04-06T03:53:39.340Z,80.85
2024-04-06T03:54:39.320Z,81.26
2024-04-06T03:55:39.324Z,81.40
2024-04-06T03:56:39.338Z,81.70
2024-04-06T03:57:39.329Z,81.26
2024-04-06T03:58:39.303Z,80.96
2024-04-06T03:59:39.293Z,80.76
2024-04-06T04:00:39.393Z,80.51
2024-04-06T04:01:39.310Z,80.65
2024-04-06T04:02:39.300Z,80.55
2024-04-06T04:03:39.413Z,80.55
2024-04-06T04:04:39.350Z,80.55
2024-04-06T04:05:39.395Z,80.55
2024-04-06T04:06:39.294Z,80.31
2024-04-06T04:07:39.277Z,80.55
2024-04-06T04:08:39.268Z,80.27
2024-04-06T04:09:39.303Z,79.81
2024-04-06T04:10:40.326Z,79.81
2024-04-06T04:11:39.248Z,80.72
2024-04-06T04:12:40.301Z,80.72
2024-04-06T04:13:39.226Z,80.31
2024-04-06T04:14:39.221Z,79.91
2024-04-06T04:15:39.254Z,80.21
2024-04-06T04:16:39.328Z,79.61
2024-04-06T04:17:39.399Z,79.27
2024-04-06T04:18:39.191Z,79.36
2024-04-06T04:19:39.163Z,79.71
2024-04-06T04:20:39.915Z,80.25
2024-04-06T04:21:39.225Z,80.41
2024-04-06T04:22:40.207Z,80.07
2024-04-06T04:23:39.249Z,80.21
2024-04-06T04:24:39.185Z,79.87
2024-04-06T04:25:39.142Z,78.96
2024-04-06T04:26:39.214Z,79.06
2024-04-06T04:27:39.144Z,78.76
2024-04-06T04:28:39.123Z,78.16
2024-04-06T04:29:39.124Z,78.26
2024-04-06T04:30:39.116Z,77.95
2024-04-06T04:31:39.085Z,77.66
2024-04-06T04:32:39.256Z,77.45
2024-04-06T04:33:39.104Z,77.55
2024-04-06T04:34:40.242Z,77.15
2024-04-06T04:35:39.107Z,77.55
2024-04-06T04:36:39.954Z,77.66
2024-04-06T04:37:39.202Z,77.99
2024-04-06T04:38:39.121Z,77.79
2024-04-06T04:39:39.063Z,77.89
2024-04-06T04:40:39.052Z,77.93
2024-04-06T04:41:39.070Z,78.19
2024-04-06T04:42:39.091Z,78.43
2024-04-06T04:43:39.034Z,78.84
2024-04-06T04:44:41.491Z,78.77
2024-04-06T04:45:39.042Z,79.48
2024-04-06T04:46:39.038Z,79.04
2024-04-06T04:47:39.180Z,79.58
2024-04-06T04:48:39.015Z,80.19
2024-04-06T04:49:39.106Z,80.32
2024-04-06T04:50:39.015Z,80.73
2024-04-06T04:51:38.990Z,80.77
2024-04-06T04:52:38.992Z,80.97
2024-04-06T04:53:39.016Z,80.87
2024-04-06T04:54:38.985Z,81.17
2024-04-06T04:55:38.988Z,81.51
2024-04-06T04:56:38.969Z,81.62
2024-04-06T04:57:38.962Z,81.76
2024-04-06T04:58:39.026Z,82.30
2024-04-06T04:59:38.973Z,82.50
2024-04-06T05:00:38.972Z,82.70
2024-04-06T05:01:38.935Z,82.90
2024-04-06T05:02:38.944Z,82.50
2024-04-06T05:03:38.935Z,82.16
2024-04-06T05:04:38.942Z,81.85
2024-04-06T05:05:38.919Z,81.79
2024-04-06T05:06:39.912Z,81.79
2024-04-06T05:07:38.919Z,82.34
2024-04-06T05:08:38.919Z,83.12
2024-04-06T05:09:38.903Z,84.14
2024-04-06T05:10:38.902Z,84.08
2024-04-06T05:11:38.905Z,84.78
2024-04-06T05:12:38.886Z,85.19
2024-04-06T05:13:39.962Z,85.13
2024-04-06T05:14:38.867Z,85.98
2024-04-06T05:15:38.878Z,86.49
2024-04-06T05:16:38.860Z,87.10
2024-04-06T05:17:38.982Z,87.10
2024-04-06T05:18:38.896Z,87.14
2024-04-06T05:19:38.869Z,87.34
2024-04-06T05:20:38.821Z,87.55
2024-04-06T05:21:38.903Z,87.55
2024-04-06T05:22:38.831Z,86.83
2024-04-06T05:23:38.842Z,87.14
2024-04-06T05:24:38.808Z,86.83
2024-04-06T05:25:38.900Z,87.04
2024-04-06T05:26:38.834Z,87.51
2024-04-06T05:27:41.542Z,86.90
2024-04-06T05:28:39.867Z,87.00
2024-04-06T05:29:38.763Z,85.94
2024-04-06T05:30:38.786Z,86.05
2024-04-06T05:31:38.768Z,85.44
2024-04-06T05:32:38.799Z,85.33
2024-04-06T05:33:38.766Z,85.03
2024-04-06T05:34:38.791Z,85.33
2024-04-06T05:35:38.777Z,85.03
2024-04-06T05:36:38.718Z,84.52
2024-04-06T05:37:39.729Z,85.58
2024-04-06T05:38:38.744Z,86.29
2024-04-06T05:39:38.746Z,86.19
2024-04-06T05:40:38.720Z,86.19
2024-04-06T05:41:38.765Z,86.39
2024-04-06T05:42:40.463Z,85.74
2024-04-06T05:43:38.669Z,85.53
2024-04-06T05:44:38.784Z,85.19
2024-04-06T05:45:38.754Z,84.58
2024-04-06T05:46:38.651Z,84.08
2024-04-06T05:47:38.698Z,84.99
2024-04-06T05:48:38.690Z,84.38
2024-04-06T05:49:38.666Z,84.38
2024-04-06T05:50:38.694Z,84.85
2024-04-06T05:51:38.654Z,84.30
2024-04-06T05:52:38.613Z,84.10
2024-04-06T05:53:38.649Z,84.41
2024-04-06T05:54:38.606Z,83.49
2024-04-06T05:55:38.660Z,82.44
2024-04-06T05:56:38.698Z,82.64
2024-04-06T05:57:38.597Z,82.54
2024-04-06T05:58:38.575Z,82.75
2024-04-06T05:59:38.621Z,82.98
2024-04-06T06:00:38.556Z,84.30
2024-04-06T06:01:38.571Z,83.55
2024-04-06T06:02:38.578Z,83.04
2024-04-06T06:03:38.576Z,82.70
2024-04-06T06:04:38.538Z,82.54
2024-04-06T06:05:38.595Z,82.84
2024-04-06T06:06:39.346Z,82.54
2024-04-06T06:07:38.629Z,82.50
2024-04-06T06:08:38.554Z,82.30
2024-04-06T06:09:38.537Z,82.30
2024-04-06T06:10:38.506Z,81.85
2024-04-06T06:11:38.561Z,81.76
2024-04-06T06:12:38.488Z,81.82
2024-04-06T06:13:38.482Z,81.41
2024-04-06T06:14:38.559Z,80.60
2024-04-06T06:15:39.505Z,80.91
2024-04-06T06:16:39.475Z,80.80
2024-04-06T06:17:38.461Z,81.21
2024-04-06T06:18:38.485Z,80.80
2024-04-06T06:19:38.476Z,80.71
2024-04-06T06:20:38.513Z,80.84
2024-04-06T06:21:38.459Z,81.65
2024-04-06T06:22:38.425Z,81.25
2024-04-06T06:23:38.514Z,81.79
2024-04-06T06:24:38.480Z,82.64
2024-04-06T06:25:38.420Z,83.90
2024-04-06T06:26:38.470Z,84.55
2024-04-06T06:27:38.436Z,85.11
2024-04-06T06:28:38.526Z,85.25
2024-04-06T06:29:38.524Z,85.25
2024-04-06T06:30:38.423Z,84.81
2024-04-06T06:31:38.390Z,85.01
2024-04-06T06:32:38.413Z,84.70
2024-04-06T06:33:38.420Z,85.42
2024-04-06T06:34:38.375Z,84.93
2024-04-06T06:37:52.886Z,84.33
2024-04-06T06:40:41.184Z,82.53
2024-04-06T06:40:41.654Z,81.70
2024-04-06T06:41:40.794Z,81.10
2024-04-06T06:42:38.301Z,81.30
2024-04-06T06:43:38.314Z,81.26
2024-04-06T06:44:38.366Z,80.01
2024-04-06T06:45:38.297Z,80.11
2024-04-06T06:46:38.273Z,80.31
2024-04-06T06:47:38.308Z,79.71
2024-04-06T06:48:38.286Z,79.27
2024-04-06T06:49:38.300Z,79.61
2024-04-06T06:50:38.347Z,78.96
2024-04-06T06:51:38.246Z,78.86
2024-04-06T06:52:38.248Z,79.27
2024-04-06T06:53:38.281Z,78.83
2024-04-06T06:54:41.406Z,78.83
2024-04-06T06:55:38.228Z,79.03
2024-04-06T06:56:38.304Z,79.23
2024-04-06T06:57:38.227Z,79.23
2024-04-06T06:58:38.199Z,79.97
2024-04-06T07:00:39.248Z,79.83
2024-04-06T07:01:39.855Z,78.83
2024-04-06T07:02:39.192Z,79.23
2024-04-06T07:03:38.172Z,78.89
2024-04-06T07:04:38.173Z,78.69
2024-04-06T07:05:38.188Z,77.70
2024-04-06T07:07:39.215Z,76.97
2024-04-06T07:08:38.149Z,75.96
2024-04-06T07:09:38.166Z,75.82
2024-04-06T07:10:38.152Z,75.29
2024-04-06T07:11:38.132Z,73.68
2024-04-06T07:12:38.114Z,74.04
2024-04-06T07:13:38.136Z,74.15
2024-04-06T07:14:38.124Z,73.41
2024-04-06T07:15:38.097Z,72.50
2024-04-06T07:16:38.314Z,73.04
2024-04-06T07:17:38.094Z,72.10
2024-04-06T07:18:38.093Z,71.73
2024-04-06T07:19:38.111Z,72.60
2024-04-06T07:20:38.076Z,71.97
2024-04-06T07:21:38.105Z,70.32
2024-04-06T07:22:38.096Z,70.16
2024-04-06T07:23:38.058Z,70.79
2024-04-06T07:24:38.082Z,70.79
2024-04-06T07:25:38.033Z,70.16
2024-04-06T07:26:38.073Z,69.42
2024-04-06T07:27:38.029Z,68.85
2024-04-06T07:28:38.027Z,67.25
2024-04-06T07:29:38.076Z,67.65
2024-04-06T07:30:37.999Z,69.15
2024-04-06T07:31:38.176Z,68.59
2024-04-06T07:32:37.991Z,67.32
2024-04-06T07:33:38.004Z,65.75
2024-04-06T07:34:37.970Z,63.56
2024-04-06T07:35:37.984Z,61.57
2024-04-06T07:36:38.001Z,58.65
2024-04-06T07:37:37.969Z,58.65
2024-04-06T07:39:19.856Z,58.03
2024-04-06T07:39:39.956Z,56.90
2024-04-06T07:40:37.950Z,58.45
2024-04-06T07:41:37.936Z,58.17
2024-04-06T07:42:37.956Z,55.76
2024-04-06T07:43:37.935Z,55.55
2024-04-06T07:44:37.926Z,57.93
2024-04-06T07:45:37.903Z,57.82
2024-04-06T07:46:37.919Z,56.81
2024-04-06T07:47:37.908Z,55.76
2024-04-06T07:48:37.919Z,55.43
2024-04-06T07:49:37.890Z,55.28
2024-04-06T07:50:37.879Z,56.36
2024-04-06T07:51:37.888Z,57.35
2024-04-06T07:52:37.870Z,58.18
2024-04-06T07:53:37.929Z,56.26
2024-04-06T07:54:37.863Z,57.15
2024-04-06T07:55:37.863Z,57.76
2024-04-06T07:56:37.857Z,58.48
2024-04-06T07:57:37.861Z,57.76
2024-04-06T07:58:37.831Z,58.15
2024-04-06T07:59:37.946Z,56.57
2024-04-06T08:00:37.821Z,55.00
2024-04-06T08:01:37.808Z,53.21
2024-04-06T08:02:37.814Z,51.30
2024-04-06T08:03:37.817Z,51.92
2024-04-06T08:04:37.848Z,50.46
2024-04-06T08:05:37.798Z,49.62
2024-04-06T08:06:37.792Z,49.02
2024-04-06T08:07:37.792Z,48.08
2024-04-06T08:08:37.791Z,47.59
2024-04-06T08:09:37.824Z,46.93
2024-04-06T08:10:37.783Z,46.85
2024-04-06T08:11:37.771Z,46.16
2024-04-06T08:12:38.061Z,46.57
2024-04-06T08:13:37.768Z,49.17
2024-04-06T08:14:37.732Z,48.15
2024-04-06T08:15:37.738Z,47.00
2024-04-06T08:16:37.725Z,46.97
2024-04-06T08:17:37.749Z,47.07
2024-04-06T08:18:37.701Z,46.01
2024-04-06T08:19:37.737Z,46.39
2024-04-06T08:20:37.732Z,47.58
2024-04-06T08:21:37.716Z,46.72
2024-04-06T08:22:37.690Z,45.94
2024-04-06T08:23:37.675Z,44.02
2024-04-06T08:24:37.680Z,43.90
2024-04-06T08:25:37.666Z,43.23
2024-04-06T08:26:37.652Z,42.85
2024-04-06T08:27:37.664Z,42.22
2024-04-06T08:28:37.643Z,40.80
2024-04-06T08:29:37.653Z,40.58
2024-04-06T08:30:37.603Z,38.78
2024-04-06T08:31:37.658Z,42.07
2024-04-06T08:32:37.625Z,42.16
2024-04-06T08:33:37.634Z,40.90
2024-04-06T08:34:37.639Z,40.00
2024-04-06T08:35:37.608Z,39.86
2024-04-06T08:36:37.628Z,39.34
2024-04-06T08:37:37.605Z,41.85
2024-04-06T08:38:37.598Z,44.64
2024-04-06T08:39:37.601Z,42.32
2024-04-06T08:40:37.645Z,42.93
2024-04-06T08:41:37.589Z,43.35
2024-04-06T08:42:37.573Z,44.20
2024-04-06T08:43:37.573Z,43.94
2024-04-06T08:44:37.553Z,43.92
2024-04-06T08:45:37.589Z,42.64
2024-04-06T08:46:37.559Z,42.18
2024-04-06T08:47:37.598Z,41.75
2024-04-06T08:48:37.531Z,40.72
2024-04-06T08:49:37.541Z,40.70
2024-04-06T08:50:37.549Z,39.52
2024-04-06T08:51:37.513Z,40.03
2024-04-06T08:52:37.488Z,40.76
2024-04-06T08:53:37.507Z,41.45
2024-04-06T08:54:37.488Z,39.21
2024-04-06T08:55:37.473Z,39.94
2024-04-06T08:56:37.476Z,41.06
2024-04-06T08:57:37.452Z,41.47
2024-04-06T08:58:37.477Z,43.11
2024-04-06T08:59:37.457Z,43.94
2024-04-06T09:00:37.446Z,43.93
2024-04-06T09:01:37.476Z,46.17
2024-04-06T09:02:37.445Z,46.97
2024-04-06T09:03:37.442Z,46.33
2024-04-06T09:04:37.417Z,46.15
2024-04-06T09:05:37.412Z,45.61
2024-04-06T09:06:37.432Z,44.85
2024-04-06T09:07:37.407Z,44.20
2024-04-06T09:08:37.403Z,44.28
2024-04-06T09:09:37.400Z,44.20
2024-04-06T09:10:37.406Z,44.90
2024-04-06T09:11:37.369Z,45.48
2024-04-06T09:12:37.391Z,46.61
2024-04-06T09:13:37.374Z,46.66
2024-04-06T09:14:37.385Z,48.77
2024-04-06T09:15:37.442Z,47.73
2024-04-06T09:16:37.406Z,47.43
2024-04-06T09:17:37.451Z,47.13
2024-04-06T09:18:37.432Z,47.23
2024-04-06T09:19:37.409Z,47.01
2024-04-06T09:20:37.338Z,46.59
2024-04-06T09:21:37.373Z,47.83
2024-04-06T09:22:37.330Z,46.79
2024-04-06T09:23:37.431Z,46.93
2024-04-06T09:24:37.326Z,46.89
2024-04-06T09:25:37.298Z,45.18
2024-04-06T09:26:37.329Z,46.07
2024-04-06T09:27:37.268Z,46.52
2024-04-06T09:28:37.472Z,44.60
2024-04-06T09:29:37.345Z,44.75
2024-04-06T09:30:37.327Z,44.32
2024-04-06T09:31:37.338Z,44.74
2024-04-06T09:32:37.279Z,45.14
2024-04-06T09:33:37.240Z,45.36
2024-04-06T09:34:37.483Z,45.75
2024-04-06T09:35:37.336Z,44.20
2024-04-06T09:36:37.326Z,44.18
2024-04-06T09:37:37.278Z,43.47
2024-04-06T09:38:37.245Z,44.16
2024-04-06T09:39:37.426Z,43.74
2024-04-06T09:40:37.212Z,42.85
2024-04-06T09:41:37.192Z,40.98
2024-04-06T09:42:37.209Z,40.84
2024-04-06T09:43:37.186Z,39.52
2024-04-06T09:44:37.187Z,39.64
2024-04-06T09:45:37.251Z,39.21
2024-04-06T09:46:37.162Z,38.66
2024-04-06T09:47:37.181Z,38.11
2024-04-06T09:48:37.194Z,38.17
2024-04-06T09:49:37.222Z,39.64
2024-04-06T09:50:37.221Z,39.17
2024-04-06T09:51:37.129Z,39.64
2024-04-06T09:52:37.160Z,38.90
2024-04-06T09:53:37.138Z,38.82
2024-04-06T09:54:37.115Z,39.34
2024-04-06T09:55:37.129Z,38.21
2024-04-06T09:56:37.132Z,38.07
2024-04-06T09:57:37.105Z,37.98
2024-04-06T09:58:37.089Z,38.19
2024-04-06T09:59:37.094Z,38.54
2024-04-06T10:00:37.143Z,41.09
2024-04-06T10:01:37.080Z,41.46
2024-04-06T10:02:37.078Z,41.91
2024-04-06T10:03:37.064Z,39.95
2024-04-06T10:04:37.068Z,39.54
2024-04-06T10:05:37.087Z,38.62
2024-04-06T10:06:37.408Z,37.17
2024-04-06T10:07:37.061Z,36.39
2024-04-06T10:08:37.079Z,36.57
2024-04-06T10:09:37.047Z,37.07
2024-04-06T10:10:37.137Z,35.78
2024-04-06T10:11:37.067Z,36.18
2024-04-06T10:12:37.061Z,38.09
2024-04-06T10:13:37.038Z,36.35
2024-04-06T10:14:37.033Z,35.55
2024-04-06T10:15:37.060Z,35.71
2024-04-06T10:16:37.030Z,35.42
2024-04-06T10:17:37.025Z,34.93
2024-04-06T10:18:37.075Z,35.45
2024-04-06T10:19:36.986Z,36.39
2024-04-06T10:20:36.985Z,37.50
2024-04-06T10:21:36.999Z,35.97
2024-04-06T10:22:36.996Z,36.49
2024-04-06T10:23:37.021Z,38.19
2024-04-06T10:24:36.966Z,37.86
2024-04-06T10:25:36.983Z,37.46
2024-04-06T10:26:36.974Z,38.54
2024-04-06T10:27:36.957Z,39.78
2024-04-06T10:28:36.953Z,37.48
2024-04-06T10:29:36.973Z,38.31
2024-04-06T10:30:36.938Z,38.40
2024-04-06T10:31:46.017Z,38.09
2024-04-06T10:32:38.908Z,36.57
2024-04-06T10:33:36.928Z,36.60
2024-04-06T10:34:46.132Z,38.11
2024-04-06T10:35:38.892Z,38.01
2024-04-06T10:36:36.878Z,38.39
2024-04-06T10:37:36.876Z,37.84
2024-04-06T10:38:36.910Z,36.66
2024-04-06T10:39:36.881Z,36.65
2024-04-06T10:40:36.832Z,35.61
2024-04-06T10:41:36.852Z,35.60
2024-04-06T10:42:36.836Z,35.60
2024-04-06T10:43:36.855Z,35.75
2024-04-06T10:44:36.825Z,35.37
2024-04-06T10:45:36.816Z,34.69
2024-04-06T10:46:36.839Z,36.76
2024-04-06T10:47:36.808Z,35.44
2024-04-06T10:48:36.816Z,35.73
2024-04-06T10:49:36.826Z,36.29
2024-04-06T10:50:36.847Z,35.75
2024-04-06T10:51:36.834Z,36.32
2024-04-06T10:52:36.769Z,34.57
2024-04-06T10:53:36.836Z,34.77
2024-04-06T10:54:38.939Z,34.69
2024-04-06T10:55:37.823Z,35.96
2024-04-06T10:56:36.777Z,34.30
2024-04-06T10:57:36.854Z,35.39
2024-04-06T10:58:36.757Z,34.64
2024-04-06T10:59:36.757Z,35.29
2024-04-06T11:00:38.215Z,34.31
2024-04-06T11:01:37.760Z,34.13
2024-04-06T11:02:36.727Z,34.98
2024-04-06T11:03:36.751Z,34.03
2024-04-06T11:04:36.695Z,33.94
2024-04-06T11:05:36.836Z,34.03
2024-04-06T11:06:39.148Z,33.34
2024-04-06T11:07:37.674Z,33.80
2024-04-06T11:08:36.714Z,32.78
2024-04-06T11:09:37.408Z,33.07
2024-04-06T11:10:36.710Z,33.28
2024-04-06T11:11:36.981Z,33.77
2024-04-06T11:12:38.994Z,33.09
2024-04-06T11:13:37.660Z,33.34
2024-04-06T11:14:36.675Z,33.04
2024-04-06T11:15:36.671Z,33.29
2024-04-06T11:16:36.654Z,32.60
2024-04-06T11:17:36.622Z,32.53
2024-04-06T11:18:36.679Z,34.05
2024-04-06T11:19:36.616Z,34.03
2024-04-06T11:20:36.626Z,33.05
2024-04-06T11:21:36.655Z,32.78
2024-04-06T11:22:36.603Z,33.67
2024-04-06T11:23:36.675Z,34.08
2024-04-06T11:24:38.812Z,33.84
2024-04-06T11:25:37.588Z,33.69
2024-04-06T11:26:36.611Z,31.21
2024-04-06T11:27:36.579Z,32.20
2024-04-06T11:28:36.596Z,32.30
2024-04-06T11:29:36.588Z,33.53
2024-04-06T11:30:36.557Z,33.64
2024-04-06T11:31:36.580Z,33.23
2024-04-06T11:32:36.595Z,32.48
2024-04-06T11:33:36.923Z,32.04
2024-04-06T11:34:36.582Z,33.09
2024-04-06T11:35:36.569Z,31.49
2024-04-06T11:36:36.536Z,31.82
2024-04-06T11:37:36.537Z,31.52
2024-04-06T11:38:36.584Z,32.20
2024-04-06T11:39:36.530Z,31.78
2024-04-06T11:40:36.536Z,31.29
2024-04-06T11:41:36.547Z,31.70
2024-04-06T11:42:36.510Z,31.52
2024-04-06T11:43:36.496Z,31.21
2024-04-06T11:44:36.487Z,31.91
2024-04-06T11:45:36.535Z,31.62
2024-04-06T11:46:36.482Z,31.52
2024-04-06T11:47:36.504Z,31.52
2024-04-06T11:48:36.477Z,31.31
2024-04-06T11:49:36.523Z,31.90
2024-04-06T11:50:36.457Z,31.49
2024-04-06T11:51:36.498Z,30.88
2024-04-06T11:52:36.489Z,31.80
2024-04-06T11:53:36.451Z,31.87
2024-04-06T11:54:36.472Z,31.63
2024-04-06T11:55:36.457Z,32.84
2024-04-06T11:56:36.456Z,32.32
2024-04-06T11:57:36.436Z,31.99
2024-04-06T11:58:36.427Z,32.10
2024-04-06T11:59:36.435Z,31.90
2024-04-06T12:00:36.434Z,31.59
2024-04-06T12:01:37.018Z,30.52
2024-04-06T12:02:36.417Z,31.71
2024-04-06T12:03:36.454Z,30.51
2024-04-06T12:04:36.409Z,30.19
2024-04-06T12:05:36.430Z,30.48
2024-04-06T12:06:36.426Z,31.05
2024-04-06T12:07:36.444Z,29.85
2024-04-06T12:08:36.374Z,30.32
2024-04-06T12:09:36.411Z,29.03
2024-04-06T12:10:36.382Z,28.59
2024-04-06T12:11:36.386Z,28.28
2024-04-06T12:12:36.367Z,28.97
2024-04-06T12:13:37.343Z,29.38
2024-04-06T12:14:36.378Z,30.27
2024-04-06T12:15:36.345Z,28.71
2024-04-06T12:16:36.334Z,28.79
2024-04-06T12:17:36.343Z,30.77
2024-04-06T12:18:36.355Z,31.31
2024-04-06T12:19:36.442Z,29.81
2024-04-06T12:20:36.340Z,29.08
2024-04-06T12:21:36.330Z,29.99
2024-04-06T12:22:36.318Z,30.05
2024-04-06T12:23:36.325Z,29.13
2024-04-06T12:24:36.294Z,28.52
2024-04-06T12:25:36.290Z,28.68
2024-04-06T12:26:36.929Z,29.15
2024-04-06T12:27:36.319Z,29.08
2024-04-06T12:28:36.374Z,28.85
2024-04-06T12:29:36.298Z,28.72
2024-04-06T12:30:36.256Z,28.72
2024-04-06T12:31:36.254Z,28.45
2024-04-06T12:32:37.250Z,30.20
2024-04-06T12:33:36.310Z,30.88
2024-04-06T12:34:36.261Z,31.08
2024-04-06T12:35:36.245Z,31.10
2024-04-06T12:36:36.356Z,31.00
2024-04-06T12:37:36.290Z,31.20
2024-04-06T12:38:36.238Z,31.45
2024-04-06T12:39:37.447Z,33.25
2024-04-06T12:40:36.227Z,31.77
2024-04-06T12:41:36.305Z,33.67
2024-04-06T12:42:36.206Z,33.08
2024-04-06T12:43:36.219Z,34.08
2024-04-06T12:44:36.206Z,33.20
2024-04-06T12:45:36.213Z,33.22
2024-04-06T12:46:36.263Z,34.10
2024-04-06T12:47:36.200Z,34.59
2024-04-06T12:48:36.165Z,34.78
2024-04-06T12:49:36.174Z,34.67
2024-04-06T12:50:36.739Z,34.59
2024-04-06T12:51:36.133Z,33.98
2024-04-06T12:52:36.142Z,34.77
2024-04-06T12:53:36.160Z,33.69
2024-04-06T12:54:36.138Z,34.38
2024-04-06T12:55:36.118Z,34.87
2024-04-06T12:56:36.155Z,34.20
2024-04-06T12:57:36.107Z,34.72